sensor_id;sensor_type;location;lat;lon;timestamp;pressure;altitude;pressure_sealevel;temperature;humidity
58967;BME280;44744;51.894;5.080;2022-12-20T00:00:30;101399.14;;;8.49;80.48
58967;BME280;44744;51.894;5.080;2022-12-20T00:01:32;101398.79;;;8.48;80.54
58967;BME280;44744;51.894;5.080;2022-12-20T00:02:32;101395.42;;;8.49;80.48
58967;BME280;44744;51.894;5.080;2022-12-20T00:03:32;101395.44;;;8.49;80.51
58967;BME280;44744;51.894;5.080;2022-12-20T00:04:33;101398.61;;;8.49;80.29
58967;BME280;44744;51.894;5.080;2022-12-20T00:05:36;101401.41;;;8.49;80.47
58967;BME280;44744;51.894;5.080;2022-12-20T00:06:36;101404.77;;;8.49;80.46
58967;BME280;44744;51.894;5.080;2022-12-20T00:07:36;101406.70;;;8.49;80.48
58967;BME280;44744;51.894;5.080;2022-12-20T00:08:36;101406.70;;;8.49;80.24
58967;BME280;44744;51.894;5.080;2022-12-20T00:09:37;101404.23;;;8.49;80.27
58967;BME280;44744;51.894;5.080;2022-12-20T00:10:40;101408.10;;;8.49;80.27
58967;BME280;44744;51.894;5.080;2022-12-20T00:11:41;101407.52;;;8.51;80.31
58967;BME280;44744;51.894;5.080;2022-12-20T00:12:41;101410.29;;;8.52;80.35
58967;BME280;44744;51.894;5.080;2022-12-20T00:13:41;101405.98;;;8.54;80.34
58967;BME280;44744;51.894;5.080;2022-12-20T00:14:44;101403.81;;;8.56;80.35
58967;BME280;44744;51.894;5.080;2022-12-20T00:15:45;101403.04;;;8.58;80.44
58967;BME280;44744;51.894;5.080;2022-12-20T00:16:45;101396.96;;;8.60;80.45
58967;BME280;44744;51.894;5.080;2022-12-20T00:17:45;101392.11;;;8.62;80.42
58967;BME280;44744;51.894;5.080;2022-12-20T00:18:46;101393.80;;;8.64;80.47
58967;BME280;44744;51.894;5.080;2022-12-20T00:19:46;101397.43;;;8.66;80.43
58967;BME280;44744;51.894;5.080;2022-12-20T00:20:46;101399.67;;;8.67;80.48
58967;BME280;44744;51.894;5.080;2022-12-20T00:21:46;101399.28;;;8.69;80.49
58967;BME280;44744;51.894;5.080;2022-12-20T00:22:47;101395.02;;;8.69;80.46
58967;BME280;44744;51.894;5.080;2022-12-20T00:23:47;101393.95;;;8.70;80.35
58967;BME280;44744;51.894;5.080;2022-12-20T00:24:47;101389.83;;;8.71;80.37
58967;BME280;44744;51.894;5.080;2022-12-20T00:25:47;101383.09;;;8.72;80.24
58967;BME280;44744;51.894;5.080;2022-12-20T00:26:47;101379.89;;;8.73;80.27
58967;BME280;44744;51.894;5.080;2022-12-20T00:27:47;101378.61;;;8.74;80.22
58967;BME280;44744;51.894;5.080;2022-12-20T00:28:48;101377.91;;;8.74;79.91
58967;BME280;44744;51.894;5.080;2022-12-20T00:29:48;101375.23;;;8.75;79.92
58967;BME280;44744;51.894;5.080;2022-12-20T00:30:52;101374.52;;;8.75;80.04
58967;BME280;44744;51.894;5.080;2022-12-20T00:31:52;101376.59;;;8.76;80.01
58967;BME280;44744;51.894;5.080;2022-12-20T00:32:52;101373.61;;;8.76;79.86
58967;BME280;44744;51.894;5.080;2022-12-20T00:33:53;101377.84;;;8.76;79.77
58967;BME280;44744;51.894;5.080;2022-12-20T00:34:53;101375.18;;;8.76;79.73
58967;BME280;44744;51.894;5.080;2022-12-20T00:35:57;101374.30;;;8.76;79.81
58967;BME280;44744;51.894;5.080;2022-12-20T00:36:57;101372.19;;;8.76;79.71
58967;BME280;44744;51.894;5.080;2022-12-20T00:37:57;101372.02;;;8.76;79.66
58967;BME280;44744;51.894;5.080;2022-12-20T00:38:57;101371.70;;;8.76;79.66
58967;BME280;44744;51.894;5.080;2022-12-20T00:39:58;101369.93;;;8.75;79.67
58967;BME280;44744;51.894;5.080;2022-12-20T00:41:17;101374.52;;;8.76;79.74
58967;BME280;44744;51.894;5.080;2022-12-20T00:42:18;101374.02;;;8.75;79.75
58967;BME280;44744;51.894;5.080;2022-12-20T00:43:18;101375.59;;;8.75;79.78
58967;BME280;44744;51.894;5.080;2022-12-20T00:44:18;101377.00;;;8.75;79.80
58967;BME280;44744;51.894;5.080;2022-12-20T00:45:18;101380.70;;;8.75;79.61
58967;BME280;44744;51.894;5.080;2022-12-20T00:46:18;101375.96;;;8.74;79.69
58967;BME280;44744;51.894;5.080;2022-12-20T00:47:19;101373.50;;;8.74;79.63
58967;BME280;44744;51.894;5.080;2022-12-20T00:48:22;101375.73;;;8.75;79.76
58967;BME280;44744;51.894;5.080;2022-12-20T00:49:23;101375.32;;;8.77;79.69
58967;BME280;44744;51.894;5.080;2022-12-20T00:50:23;101375.08;;;8.79;79.74
58967;BME280;44744;51.894;5.080;2022-12-20T00:51:24;101376.77;;;8.80;79.66
58967;BME280;44744;51.894;5.080;2022-12-20T00:52:25;101372.35;;;8.81;79.59
58967;BME280;44744;51.894;5.080;2022-12-20T00:53:25;101375.14;;;8.82;79.72
58967;BME280;44744;51.894;5.080;2022-12-20T00:54:25;101379.11;;;8.84;79.83
58967;BME280;44744;51.894;5.080;2022-12-20T00:55:26;101379.58;;;8.85;79.77
58967;BME280;44744;51.894;5.080;2022-12-20T00:56:26;101377.40;;;8.87;79.85
58967;BME280;44744;51.894;5.080;2022-12-20T00:57:26;101382.98;;;8.89;79.92
58967;BME280;44744;51.894;5.080;2022-12-20T00:58:27;101382.09;;;8.90;79.71
58967;BME280;44744;51.894;5.080;2022-12-20T00:59:27;101378.18;;;8.90;79.79
58967;BME280;44744;51.894;5.080;2022-12-20T01:00:35;101379.55;;;8.91;79.92
58967;BME280;44744;51.894;5.080;2022-12-20T01:01:38;101377.20;;;8.92;79.97
58967;BME280;44744;51.894;5.080;2022-12-20T01:02:38;101380.35;;;8.93;80.00
58967;BME280;44744;51.894;5.080;2022-12-20T01:03:38;101380.85;;;8.94;79.92
58967;BME280;44744;51.894;5.080;2022-12-20T01:04:38;101379.46;;;8.94;79.84
58967;BME280;44744;51.894;5.080;2022-12-20T01:05:39;101379.45;;;8.93;79.77
58967;BME280;44744;51.894;5.080;2022-12-20T01:06:39;101378.80;;;8.92;79.66
58967;BME280;44744;51.894;5.080;2022-12-20T01:07:39;101382.00;;;8.92;79.62
58967;BME280;44744;51.894;5.080;2022-12-20T01:08:39;101381.50;;;8.91;79.70
58967;BME280;44744;51.894;5.080;2022-12-20T01:09:39;101380.64;;;8.90;79.77
58967;BME280;44744;51.894;5.080;2022-12-20T01:10:40;101384.73;;;8.89;79.83
58967;BME280;44744;51.894;5.080;2022-12-20T01:11:40;101385.27;;;8.88;79.82
58967;BME280;44744;51.894;5.080;2022-12-20T01:12:40;101390.64;;;8.86;79.87
58967;BME280;44744;51.894;5.080;2022-12-20T01:13:42;101390.16;;;8.86;79.94
58967;BME280;44744;51.894;5.080;2022-12-20T01:14:42;101385.44;;;8.84;80.01
58967;BME280;44744;51.894;5.080;2022-12-20T01:15:42;101385.52;;;8.83;80.02
58967;BME280;44744;51.894;5.080;2022-12-20T01:16:44;101380.98;;;8.81;80.07
58967;BME280;44744;51.894;5.080;2022-12-20T01:17:46;101381.91;;;8.80;80.20
58967;BME280;44744;51.894;5.080;2022-12-20T01:18:47;101381.02;;;8.80;80.26
58967;BME280;44744;51.894;5.080;2022-12-20T01:19:47;101380.17;;;8.79;80.42
58967;BME280;44744;51.894;5.080;2022-12-20T01:20:47;101381.72;;;8.80;80.51
58967;BME280;44744;51.894;5.080;2022-12-20T01:21:48;101382.27;;;8.80;80.64
58967;BME280;44744;51.894;5.080;2022-12-20T01:22:48;101382.11;;;8.79;80.75
58967;BME280;44744;51.894;5.080;2022-12-20T01:23:48;101383.19;;;8.79;80.77
58967;BME280;44744;51.894;5.080;2022-12-20T01:24:48;101383.69;;;8.80;81.04
58967;BME280;44744;51.894;5.080;2022-12-20T01:25:49;101381.96;;;8.79;81.04
58967;BME280;44744;51.894;5.080;2022-12-20T01:26:49;101381.23;;;8.79;81.08
58967;BME280;44744;51.894;5.080;2022-12-20T01:27:50;101374.54;;;8.79;81.16
58967;BME280;44744;51.894;5.080;2022-12-20T01:28:54;101373.30;;;8.79;81.33
58967;BME280;44744;51.894;5.080;2022-12-20T01:29:54;101369.08;;;8.79;81.48
58967;BME280;44744;51.894;5.080;2022-12-20T01:30:59;101367.77;;;8.81;81.57
58967;BME280;44744;51.894;5.080;2022-12-20T01:31:59;101364.80;;;8.80;81.58
58967;BME280;44744;51.894;5.080;2022-12-20T01:33:00;101362.65;;;8.81;81.72
58967;BME280;44744;51.894;5.080;2022-12-20T01:34:00;101358.07;;;8.81;81.83
58967;BME280;44744;51.894;5.080;2022-12-20T01:35:00;101354.73;;;8.80;81.77
58967;BME280;44744;51.894;5.080;2022-12-20T01:36:01;101351.19;;;8.81;81.90
58967;BME280;44744;51.894;5.080;2022-12-20T01:37:02;101345.17;;;8.81;81.81
58967;BME280;44744;51.894;5.080;2022-12-20T01:38:02;101339.90;;;8.81;81.80
58967;BME280;44744;51.894;5.080;2022-12-20T01:39:21;101331.83;;;8.80;81.82
58967;BME280;44744;51.894;5.080;2022-12-20T01:40:21;101329.21;;;8.79;81.90
58967;BME280;44744;51.894;5.080;2022-12-20T01:41:21;101323.83;;;8.77;82.08
58967;BME280;44744;51.894;5.080;2022-12-20T01:42:21;101323.14;;;8.77;82.13
58967;BME280;44744;51.894;5.080;2022-12-20T01:43:22;101326.20;;;8.75;82.20
58967;BME280;44744;51.894;5.080;2022-12-20T01:45:27;101319.96;;;8.72;82.22
58967;BME280;44744;51.894;5.080;2022-12-20T01:46:29;101311.71;;;8.71;82.20
58967;BME280;44744;51.894;5.080;2022-12-20T01:47:30;101314.78;;;8.69;82.33
58967;BME280;44744;51.894;5.080;2022-12-20T01:48:33;101315.02;;;8.68;82.33
58967;BME280;44744;51.894;5.080;2022-12-20T01:49:37;101310.61;;;8.68;82.51
58967;BME280;44744;51.894;5.080;2022-12-20T01:50:39;101306.41;;;8.67;82.51
58967;BME280;44744;51.894;5.080;2022-12-20T01:51:43;101306.06;;;8.67;82.50
58967;BME280;44744;51.894;5.080;2022-12-20T01:52:44;101303.05;;;8.67;82.53
58967;BME280;44744;51.894;5.080;2022-12-20T01:53:46;101302.15;;;8.68;82.77
58967;BME280;44744;51.894;5.080;2022-12-20T01:54:49;101300.21;;;8.68;82.81
58967;BME280;44744;51.894;5.080;2022-12-20T01:57:04;101304.89;;;8.70;83.02
58967;BME280;44744;51.894;5.080;2022-12-20T01:58:06;101300.15;;;8.69;83.12
58967;BME280;44744;51.894;5.080;2022-12-20T01:59:07;101298.35;;;8.70;83.13
58967;BME280;44744;51.894;5.080;2022-12-20T02:00:08;101294.77;;;8.71;83.26
58967;BME280;44744;51.894;5.080;2022-12-20T02:01:08;101299.83;;;8.73;83.24
58967;BME280;44744;51.894;5.080;2022-12-20T02:02:10;101306.30;;;8.74;83.32
58967;BME280;44744;51.894;5.080;2022-12-20T02:03:11;101304.52;;;8.75;83.40
58967;BME280;44744;51.894;5.080;2022-12-20T02:04:11;101306.98;;;8.75;83.42
58967;BME280;44744;51.894;5.080;2022-12-20T02:05:12;101307.30;;;8.76;83.64
58967;BME280;44744;51.894;5.080;2022-12-20T02:06:13;101313.23;;;8.77;83.83
58967;BME280;44744;51.894;5.080;2022-12-20T02:07:16;101310.94;;;8.78;83.78
58967;BME280;44744;51.894;5.080;2022-12-20T02:08:18;101310.88;;;8.79;83.85
58967;BME280;44744;51.894;5.080;2022-12-20T02:09:19;101308.39;;;8.80;84.03
58967;BME280;44744;51.894;5.080;2022-12-20T02:10:20;101302.02;;;8.80;84.05
58967;BME280;44744;51.894;5.080;2022-12-20T02:12:23;101304.52;;;8.79;83.92
58967;BME280;44744;51.894;5.080;2022-12-20T02:13:42;101301.11;;;8.81;84.20
58967;BME280;44744;51.894;5.080;2022-12-20T02:15:54;101296.40;;;8.80;84.02
58967;BME280;44744;51.894;5.080;2022-12-20T02:18:26;101298.60;;;8.78;84.00
58967;BME280;44744;51.894;5.080;2022-12-20T02:27:59;101294.84;;;8.75;84.30
58967;BME280;44744;51.894;5.080;2022-12-20T02:30:04;101294.27;;;8.75;84.23
58967;BME280;44744;51.894;5.080;2022-12-20T02:31:09;101290.33;;;8.77;84.38
58967;BME280;44744;51.894;5.080;2022-12-20T02:33:10;101284.60;;;8.79;84.49
58967;BME280;44744;51.894;5.080;2022-12-20T02:34:11;101291.95;;;8.81;84.55
58967;BME280;44744;51.894;5.080;2022-12-20T02:35:14;101296.82;;;8.82;84.76
58967;BME280;44744;51.894;5.080;2022-12-20T02:36:17;101294.19;;;8.82;84.89
58967;BME280;44744;51.894;5.080;2022-12-20T02:37:17;101294.86;;;8.83;84.85
58967;BME280;44744;51.894;5.080;2022-12-20T02:38:28;101295.00;;;8.83;84.92
58967;BME280;44744;51.894;5.080;2022-12-20T02:39:29;101288.75;;;8.85;84.94
58967;BME280;44744;51.894;5.080;2022-12-20T02:40:37;101291.52;;;8.86;84.83
58967;BME280;44744;51.894;5.080;2022-12-20T02:41:40;101291.67;;;8.87;84.94
58967;BME280;44744;51.894;5.080;2022-12-20T02:42:43;101295.84;;;8.89;85.12
58967;BME280;44744;51.894;5.080;2022-12-20T02:43:44;101301.86;;;8.88;85.00
58967;BME280;44744;51.894;5.080;2022-12-20T02:44:58;101304.52;;;8.88;84.85
58967;BME280;44744;51.894;5.080;2022-12-20T02:46:01;101310.29;;;8.89;84.95
58967;BME280;44744;51.894;5.080;2022-12-20T02:47:03;101312.61;;;8.89;84.90
58967;BME280;44744;51.894;5.080;2022-12-20T02:48:05;101307.52;;;8.88;84.76
58967;BME280;44744;51.894;5.080;2022-12-20T02:49:09;101302.44;;;8.87;84.77
58967;BME280;44744;51.894;5.080;2022-12-20T02:50:15;101298.20;;;8.87;84.74
58967;BME280;44744;51.894;5.080;2022-12-20T02:51:16;101299.12;;;8.86;84.65
58967;BME280;44744;51.894;5.080;2022-12-20T02:52:18;101299.02;;;8.85;84.55
58967;BME280;44744;51.894;5.080;2022-12-20T02:53:20;101294.64;;;8.84;84.66
58967;BME280;44744;51.894;5.080;2022-12-20T02:54:21;101291.67;;;8.83;84.65
58967;BME280;44744;51.894;5.080;2022-12-20T02:58:16;101289.08;;;8.78;84.40
58967;BME280;44744;51.894;5.080;2022-12-20T02:59:25;101287.01;;;8.76;84.31
58967;BME280;44744;51.894;5.080;2022-12-20T03:00:28;101283.07;;;8.74;84.39
58967;BME280;44744;51.894;5.080;2022-12-20T03:01:44;101288.23;;;8.72;84.25
58967;BME280;44744;51.894;5.080;2022-12-20T03:02:44;101289.52;;;8.71;84.37
58967;BME280;44744;51.894;5.080;2022-12-20T03:03:46;101291.44;;;8.71;84.38
58967;BME280;44744;51.894;5.080;2022-12-20T03:04:47;101291.30;;;8.70;84.40
58967;BME280;44744;51.894;5.080;2022-12-20T03:05:48;101295.10;;;8.72;84.44
58967;BME280;44744;51.894;5.080;2022-12-20T03:06:57;101296.16;;;8.72;84.37
58967;BME280;44744;51.894;5.080;2022-12-20T03:07:57;101295.60;;;8.73;84.50
58967;BME280;44744;51.894;5.080;2022-12-20T03:08:58;101292.77;;;8.73;84.44
58967;BME280;44744;51.894;5.080;2022-12-20T03:09:58;101295.56;;;8.74;84.66
58967;BME280;44744;51.894;5.080;2022-12-20T03:10:58;101296.59;;;8.75;84.66
58967;BME280;44744;51.894;5.080;2022-12-20T03:11:58;101296.27;;;8.74;84.56
58967;BME280;44744;51.894;5.080;2022-12-20T03:12:58;101294.67;;;8.74;84.75
58967;BME280;44744;51.894;5.080;2022-12-20T03:13:59;101286.91;;;8.74;84.76
58967;BME280;44744;51.894;5.080;2022-12-20T03:14:59;101290.71;;;8.76;84.91
58967;BME280;44744;51.894;5.080;2022-12-20T03:15:59;101285.89;;;8.78;84.86
58967;BME280;44744;51.894;5.080;2022-12-20T03:17:02;101284.09;;;8.79;84.80
58967;BME280;44744;51.894;5.080;2022-12-20T03:18:02;101283.88;;;8.80;84.80
58967;BME280;44744;51.894;5.080;2022-12-20T03:19:03;101280.85;;;8.80;84.88
58967;BME280;44744;51.894;5.080;2022-12-20T03:20:03;101283.00;;;8.80;84.88
58967;BME280;44744;51.894;5.080;2022-12-20T03:21:04;101279.42;;;8.81;84.72
58967;BME280;44744;51.894;5.080;2022-12-20T03:22:04;101275.52;;;8.81;84.68
58967;BME280;44744;51.894;5.080;2022-12-20T03:23:04;101271.14;;;8.80;84.59
58967;BME280;44744;51.894;5.080;2022-12-20T03:24:05;101274.46;;;8.81;84.65
58967;BME280;44744;51.894;5.080;2022-12-20T03:25:05;101282.75;;;8.81;84.65
58967;BME280;44744;51.894;5.080;2022-12-20T03:26:05;101284.50;;;8.82;84.52
58967;BME280;44744;51.894;5.080;2022-12-20T03:27:06;101284.01;;;8.81;84.50
58967;BME280;44744;51.894;5.080;2022-12-20T03:28:06;101280.46;;;8.81;84.42
58967;BME280;44744;51.894;5.080;2022-12-20T03:29:06;101279.73;;;8.81;84.42
58967;BME280;44744;51.894;5.080;2022-12-20T03:30:06;101274.59;;;8.83;84.49
58967;BME280;44744;51.894;5.080;2022-12-20T03:31:06;101277.02;;;8.83;84.41
58967;BME280;44744;51.894;5.080;2022-12-20T03:32:08;101282.04;;;8.86;84.45
58967;BME280;44744;51.894;5.080;2022-12-20T03:33:08;101277.90;;;8.87;84.38
58967;BME280;44744;51.894;5.080;2022-12-20T03:34:08;101276.24;;;8.90;84.40
58967;BME280;44744;51.894;5.080;2022-12-20T03:35:08;101275.46;;;8.92;84.52
58967;BME280;44744;51.894;5.080;2022-12-20T03:36:09;101278.90;;;8.94;84.60
58967;BME280;44744;51.894;5.080;2022-12-20T03:37:09;101276.51;;;8.96;84.62
58967;BME280;44744;51.894;5.080;2022-12-20T03:38:09;101277.28;;;8.98;84.51
58967;BME280;44744;51.894;5.080;2022-12-20T03:39:09;101282.20;;;8.99;84.57
58967;BME280;44744;51.894;5.080;2022-12-20T03:40:09;101279.34;;;9.00;84.49
58967;BME280;44744;51.894;5.080;2022-12-20T03:41:10;101282.62;;;9.02;84.64
58967;BME280;44744;51.894;5.080;2022-12-20T03:42:10;101284.80;;;9.04;84.71
58967;BME280;44744;51.894;5.080;2022-12-20T03:43:10;101287.77;;;9.05;84.60
58967;BME280;44744;51.894;5.080;2022-12-20T03:44:10;101284.77;;;9.05;84.59
58967;BME280;44744;51.894;5.080;2022-12-20T03:45:11;101291.31;;;9.05;84.42
58967;BME280;44744;51.894;5.080;2022-12-20T03:46:14;101291.66;;;9.05;84.51
58967;BME280;44744;51.894;5.080;2022-12-20T03:47:14;101289.90;;;9.05;84.57
58967;BME280;44744;51.894;5.080;2022-12-20T03:48:14;101287.81;;;9.04;84.44
58967;BME280;44744;51.894;5.080;2022-12-20T03:49:14;101286.02;;;9.04;84.42
58967;BME280;44744;51.894;5.080;2022-12-20T03:50:14;101284.79;;;9.04;84.27
58967;BME280;44744;51.894;5.080;2022-12-20T03:51:15;101277.79;;;9.03;84.28
58967;BME280;44744;51.894;5.080;2022-12-20T03:52:15;101277.76;;;9.04;84.27
58967;BME280;44744;51.894;5.080;2022-12-20T03:53:15;101275.80;;;9.04;84.25
58967;BME280;44744;51.894;5.080;2022-12-20T03:54:15;101273.19;;;9.03;84.13
58967;BME280;44744;51.894;5.080;2022-12-20T03:55:15;101266.48;;;9.04;84.25
58967;BME280;44744;51.894;5.080;2022-12-20T03:56:15;101265.27;;;9.03;84.23
58967;BME280;44744;51.894;5.080;2022-12-20T03:57:31;101260.17;;;9.03;84.17
58967;BME280;44744;51.894;5.080;2022-12-20T03:58:56;101260.02;;;9.03;84.15
58967;BME280;44744;51.894;5.080;2022-12-20T03:59:56;101269.17;;;9.02;84.10
58967;BME280;44744;51.894;5.080;2022-12-20T04:00:57;101261.98;;;9.02;84.08
58967;BME280;44744;51.894;5.080;2022-12-20T04:01:57;101263.20;;;9.02;84.01
58967;BME280;44744;51.894;5.080;2022-12-20T04:02:57;101262.95;;;9.03;84.11
58967;BME280;44744;51.894;5.080;2022-12-20T04:03:57;101268.05;;;9.04;84.16
58967;BME280;44744;51.894;5.080;2022-12-20T04:04:57;101265.87;;;9.06;84.23
58967;BME280;44744;51.894;5.080;2022-12-20T04:05:57;101267.77;;;9.07;84.17
58967;BME280;44744;51.894;5.080;2022-12-20T04:06:57;101261.20;;;9.08;84.16
58967;BME280;44744;51.894;5.080;2022-12-20T04:07:58;101262.19;;;9.10;84.29
58967;BME280;44744;51.894;5.080;2022-12-20T04:08:58;101258.09;;;9.11;84.33
58967;BME280;44744;51.894;5.080;2022-12-20T04:09:58;101257.18;;;9.11;84.33
58967;BME280;44744;51.894;5.080;2022-12-20T04:10:58;101257.61;;;9.13;84.32
58967;BME280;44744;51.894;5.080;2022-12-20T04:11:59;101262.14;;;9.14;84.35
58967;BME280;44744;51.894;5.080;2022-12-20T04:12:59;101262.11;;;9.15;84.34
58967;BME280;44744;51.894;5.080;2022-12-20T04:14:02;101262.75;;;9.17;84.46
58967;BME280;44744;51.894;5.080;2022-12-20T04:15:02;101262.38;;;9.17;84.46
58967;BME280;44744;51.894;5.080;2022-12-20T04:16:05;101265.35;;;9.18;84.42
58967;BME280;44744;51.894;5.080;2022-12-20T04:17:05;101270.25;;;9.19;84.38
58967;BME280;44744;51.894;5.080;2022-12-20T04:18:06;101263.74;;;9.19;84.37
58967;BME280;44744;51.894;5.080;2022-12-20T04:19:06;101267.23;;;9.19;84.37
58967;BME280;44744;51.894;5.080;2022-12-20T04:20:06;101267.07;;;9.19;84.28
58967;BME280;44744;51.894;5.080;2022-12-20T04:21:07;101265.12;;;9.19;84.20
58967;BME280;44744;51.894;5.080;2022-12-20T04:22:07;101265.45;;;9.20;84.21
58967;BME280;44744;51.894;5.080;2022-12-20T04:23:07;101266.54;;;9.19;84.15
58967;BME280;44744;51.894;5.080;2022-12-20T04:24:07;101262.68;;;9.19;84.13
58967;BME280;44744;51.894;5.080;2022-12-20T04:25:08;101262.70;;;9.18;84.04
58967;BME280;44744;51.894;5.080;2022-12-20T04:26:08;101259.73;;;9.17;84.06
58967;BME280;44744;51.894;5.080;2022-12-20T04:27:09;101261.85;;;9.18;84.00
58967;BME280;44744;51.894;5.080;2022-12-20T04:28:09;101260.27;;;9.17;84.03
58967;BME280;44744;51.894;5.080;2022-12-20T04:29:09;101260.33;;;9.16;83.96
58967;BME280;44744;51.894;5.080;2022-12-20T04:30:10;101261.59;;;9.15;84.05
58967;BME280;44744;51.894;5.080;2022-12-20T04:31:10;101260.02;;;9.15;83.99
58967;BME280;44744;51.894;5.080;2022-12-20T04:32:10;101259.52;;;9.14;84.27
58967;BME280;44744;51.894;5.080;2022-12-20T04:33:10;101258.16;;;9.13;84.32
58967;BME280;44744;51.894;5.080;2022-12-20T04:34:10;101257.86;;;9.12;84.40
58967;BME280;44744;51.894;5.080;2022-12-20T04:35:19;101259.06;;;9.12;84.30
58967;BME280;44744;51.894;5.080;2022-12-20T04:36:20;101260.92;;;9.15;84.61
58967;BME280;44744;51.894;5.080;2022-12-20T04:37:23;101259.00;;;9.14;84.67
58967;BME280;44744;51.894;5.080;2022-12-20T04:38:23;101258.25;;;9.15;84.76
58967;BME280;44744;51.894;5.080;2022-12-20T04:39:23;101254.00;;;9.15;84.86
58967;BME280;44744;51.894;5.080;2022-12-20T04:40:24;101250.11;;;9.16;85.00
58967;BME280;44744;51.894;5.080;2022-12-20T04:41:24;101251.59;;;9.17;85.39
58967;BME280;44744;51.894;5.080;2022-12-20T04:42:24;101249.69;;;9.17;85.17
58967;BME280;44744;51.894;5.080;2022-12-20T04:43:24;101243.98;;;9.18;85.49
58967;BME280;44744;51.894;5.080;2022-12-20T04:44:25;101241.16;;;9.18;85.65
58967;BME280;44744;51.894;5.080;2022-12-20T04:45:36;101240.27;;;9.19;85.64
58967;BME280;44744;51.894;5.080;2022-12-20T04:46:40;101236.73;;;9.19;85.47
58967;BME280;44744;51.894;5.080;2022-12-20T04:47:43;101236.19;;;9.19;85.56
58967;BME280;44744;51.894;5.080;2022-12-20T04:48:43;101233.52;;;9.20;85.73
58967;BME280;44744;51.894;5.080;2022-12-20T04:49:44;101238.83;;;9.19;85.70
58967;BME280;44744;51.894;5.080;2022-12-20T04:50:47;101233.23;;;9.18;85.65
58967;BME280;44744;51.894;5.080;2022-12-20T04:51:48;101235.84;;;9.19;85.70
58967;BME280;44744;51.894;5.080;2022-12-20T04:52:48;101237.08;;;9.19;85.74
58967;BME280;44744;51.894;5.080;2022-12-20T04:53:48;101238.65;;;9.19;85.80
58967;BME280;44744;51.894;5.080;2022-12-20T04:54:51;101236.91;;;9.19;86.00
58967;BME280;44744;51.894;5.080;2022-12-20T04:55:51;101241.00;;;9.18;85.99
58967;BME280;44744;51.894;5.080;2022-12-20T04:56:54;101238.11;;;9.15;86.03
58967;BME280;44744;51.894;5.080;2022-12-20T04:57:55;101239.75;;;9.14;86.10
58967;BME280;44744;51.894;5.080;2022-12-20T05:00:26;101243.23;;;9.12;86.01
58967;BME280;44744;51.894;5.080;2022-12-20T05:01:30;101236.73;;;9.11;86.13
58967;BME280;44744;51.894;5.080;2022-12-20T05:02:30;101228.30;;;9.09;86.28
58967;BME280;44744;51.894;5.080;2022-12-20T05:03:30;101235.85;;;9.10;86.26
58967;BME280;44744;51.894;5.080;2022-12-20T05:04:30;101234.83;;;9.10;86.28
58967;BME280;44744;51.894;5.080;2022-12-20T05:05:30;101233.60;;;9.10;86.15
58967;BME280;44744;51.894;5.080;2022-12-20T05:06:31;101235.68;;;9.10;86.28
58967;BME280;44744;51.894;5.080;2022-12-20T05:07:31;101233.73;;;9.11;86.45
58967;BME280;44744;51.894;5.080;2022-12-20T05:08:31;101228.81;;;9.10;86.39
58967;BME280;44744;51.894;5.080;2022-12-20T05:09:32;101227.23;;;9.10;86.50
58967;BME280;44744;51.894;5.080;2022-12-20T05:10:32;101219.44;;;9.11;86.53
58967;BME280;44744;51.894;5.080;2022-12-20T05:11:32;101215.55;;;9.11;86.60
58967;BME280;44744;51.894;5.080;2022-12-20T05:12:32;101216.26;;;9.11;86.77
58967;BME280;44744;51.894;5.080;2022-12-20T05:13:32;101211.11;;;9.12;86.72
58967;BME280;44744;51.894;5.080;2022-12-20T05:14:33;101208.79;;;9.12;86.57
58967;BME280;44744;51.894;5.080;2022-12-20T05:15:33;101205.34;;;9.15;86.87
58967;BME280;44744;51.894;5.080;2022-12-20T05:16:33;101204.77;;;9.15;86.85
58967;BME280;44744;51.894;5.080;2022-12-20T05:17:33;101195.71;;;9.16;86.95
58967;BME280;44744;51.894;5.080;2022-12-20T05:18:33;101189.64;;;9.18;86.97
58967;BME280;44744;51.894;5.080;2022-12-20T05:19:34;101191.02;;;9.19;87.08
58967;BME280;44744;51.894;5.080;2022-12-20T05:20:34;101190.63;;;9.20;87.21
58967;BME280;44744;51.894;5.080;2022-12-20T05:21:34;101186.50;;;9.21;87.29
58967;BME280;44744;51.894;5.080;2022-12-20T05:22:34;101184.74;;;9.21;87.28
58967;BME280;44744;51.894;5.080;2022-12-20T05:23:34;101181.21;;;9.21;87.19
58967;BME280;44744;51.894;5.080;2022-12-20T05:24:35;101177.52;;;9.21;87.17
58967;BME280;44744;51.894;5.080;2022-12-20T05:25:37;101178.05;;;9.21;87.16
58967;BME280;44744;51.894;5.080;2022-12-20T05:26:37;101178.02;;;9.21;87.18
58967;BME280;44744;51.894;5.080;2022-12-20T05:27:37;101179.88;;;9.20;87.17
58967;BME280;44744;51.894;5.080;2022-12-20T05:28:37;101174.27;;;9.19;87.12
58967;BME280;44744;51.894;5.080;2022-12-20T05:29:37;101177.13;;;9.18;87.05
58967;BME280;44744;51.894;5.080;2022-12-20T05:30:38;101177.02;;;9.16;87.07
58967;BME280;44744;51.894;5.080;2022-12-20T05:31:38;101183.38;;;9.16;87.09
58967;BME280;44744;51.894;5.080;2022-12-20T05:32:38;101185.18;;;9.16;87.22
58967;BME280;44744;51.894;5.080;2022-12-20T05:33:39;101185.02;;;9.15;87.17
58967;BME280;44744;51.894;5.080;2022-12-20T05:34:39;101185.56;;;9.15;87.20
58967;BME280;44744;51.894;5.080;2022-12-20T05:35:39;101179.05;;;9.14;87.25
58967;BME280;44744;51.894;5.080;2022-12-20T05:36:47;101180.69;;;9.14;87.15
58967;BME280;44744;51.894;5.080;2022-12-20T05:37:47;101176.25;;;9.13;87.17
58967;BME280;44744;51.894;5.080;2022-12-20T05:38:47;101174.67;;;9.14;87.11
58967;BME280;44744;51.894;5.080;2022-12-20T05:39:47;101174.56;;;9.16;87.08
58967;BME280;44744;51.894;5.080;2022-12-20T05:40:48;101171.70;;;9.17;87.22
58967;BME280;44744;51.894;5.080;2022-12-20T05:41:48;101178.02;;;9.18;87.15
58967;BME280;44744;51.894;5.080;2022-12-20T05:42:48;101172.91;;;9.18;87.11
58967;BME280;44744;51.894;5.080;2022-12-20T05:43:48;101178.66;;;9.19;87.11
58967;BME280;44744;51.894;5.080;2022-12-20T05:44:49;101181.80;;;9.20;87.17
58967;BME280;44744;51.894;5.080;2022-12-20T05:45:50;101177.69;;;9.21;87.16